Stations météo

Publicité
Nimes/Courbessac, France (7645): Température de l'air & dewpoint: 14.09.2018 07:00:00 - 20.09.2018 07:00:00 (CEST)Nimes/Courbessac, France (7645): Température de l'air 5cm: 14.09.2018 07:00:00 - 20.09.2018 07:00:00 (CEST)Nimes/Courbessac, France (7645): Température de l'air -20cm: 14.09.2018 07:00:00 - 20.09.2018 07:00:00 (CEST)Nimes/Courbessac, France (7645): Vitesse du vent & gusts: 14.09.2018 07:00:00 - 20.09.2018 07:00:00 (CEST)Nimes/Courbessac, France (7645): Direction du vent: 14.09.2018 07:00:00 - 20.09.2018 07:00:00 (CEST)Nimes/Courbessac, France (7645): reduced air pressure: 14.09.2018 07:00:00 - 20.09.2018 07:00:00 (CEST)Nimes/Courbessac, France (7645): Ensoleillement: 14.09.2018 07:00:00 - 20.09.2018 07:00:00 (CEST)Nimes/Courbessac, France (7645): Quantités de précipitations: 14.09.2018 07:00:00 - 20.09.2018 07:00:00 (CEST)
Date & Time tt [°C] td [°C] tt 5cm [°C] tt -20cm [°C] ff [km/h] ff [knt] fx [km/h] fx [knt] dd ppp [hPa] sd [min] rr [mm]
20.09.2018 07:00:00 - - - - - - - - - - - -
20.09.2018 06:00:00 17,2 14,5 15,2 24,6 5 3 9 5 NNW 1018,9 0 0,0
20.09.2018 05:00:00 17,6 14,9 15,6 24,7 7 4 9 5 NNW 1018,9 0 0,0
20.09.2018 04:00:00 17,8 14,9 15,7 24,8 6 4 8 5 N 1019,0 0 0,0
20.09.2018 03:00:00 18,1 15,0 15,1 25,0 2 1 8 4 N 1019,3 0 0,0
20.09.2018 02:00:00 18,3 15,9 15,4 25,1 4 2 6 3 NE 1019,6 0 0,0
20.09.2018 01:00:00 18,9 15,0 16,1 25,2 2 1 6 3 NNW 1019,4 0 0,0
20.09.2018 00:00:00 20,1 15,3 17,1 25,3 3 2 7 4 NW 1019,6 0 0,0
19.09.2018 23:00:00 20,7 15,3 17,6 25,4 4 2 7 4 NW 1019,5 0 0,0
19.09.2018 22:00:00 22,1 15,7 18,1 25,5 2 1 9 5 E 1019,3 0 0,0
19.09.2018 21:00:00 24,4 15,6 20,7 25,5 4 2 16 9 W 1018,9 0 0,0
19.09.2018 20:00:00 25,8 16,1 24,3 25,5 8 5 22 12 WSW 1018,4 24 0,0
19.09.2018 19:00:00 28,1 16,7 27,6 25,3 12 7 24 13 SW 1018,2 60 0,0
19.09.2018 18:00:00 29,7 17,2 31,7 25,1 13 7 25 14 SW 1017,8 60 0,0
19.09.2018 17:00:00 31,2 16,8 36,7 24,8 13 7 22 12 SSW 1017,9 60 0,0
19.09.2018 16:00:00 31,6 16,7 39,2 24,6 11 6 19 10 SSW 1018,3 60 0,0
19.09.2018 15:00:00 31,3 16,9 37,6 24,3 8 4 21 11 SSW 1018,8 60 0,0
19.09.2018 14:00:00 30,4 16,8 37,4 24,1 9 5 18 10 WSW 1019,5 60 0,0
19.09.2018 13:00:00 29,7 17,8 36,1 24,0 4 2 11 6 ESE 1020,0 60 0,0
19.09.2018 12:00:00 27,9 18,6 32,9 23,9 4 2 12 7 SSW 1020,6 60 0,0
19.09.2018 11:00:00 25,9 18,1 29,8 24,0 4 2 8 4 NNW 1021,0 60 0,0
19.09.2018 10:00:00 23,4 18,3 22,9 24,0 4 2 8 4 NNW 1020,7 60 0,0
19.09.2018 09:00:00 20,6 17,8 17,0 24,1 0 0 9 5 N 1020,4 55 0,0
19.09.2018 08:00:00 17,5 16,7 15,1 24,2 4 2 10 5 NNW 1020,0 3 0,0
19.09.2018 07:00:00 17,9 17,1 15,8 24,3 5 3 8 4 NNW 1019,5 0 0,2
19.09.2018 06:00:00 18,2 17,0 16,9 24,4 3 2 13 7 N 1019,3 0 0,0
19.09.2018 05:00:00 19,1 18,3 18,3 24,6 8 4 17 9 NNW 1019,0 0 0,0
19.09.2018 04:00:00 19,2 18,4 17,2 24,7 8 4 11 6 NNW 1019,0 0 0,0
19.09.2018 03:00:00 18,6 17,4 17,0 24,8 4 2 8 4 NNW 1019,2 0 0,0
19.09.2018 02:00:00 18,8 17,6 16,2 24,9 4 2 6 3 NNW 1019,8 0 0,0
19.09.2018 01:00:00 19,3 17,4 17,3 25,0 3 2 8 5 N 1019,9 0 0,0
19.09.2018 00:00:00 20,1 18,2 18,2 25,1 4 2 8 4 NNW 1019,8 0 0,0
18.09.2018 23:00:00 20,6 18,5 18,2 25,2 3 2 5 3 N 1019,5 0 0,0
18.09.2018 22:00:00 21,8 19,0 19,1 25,2 0 0 12 7 N 1019,1 0 0,0
18.09.2018 21:00:00 23,3 19,5 21,5 25,3 4 2 18 10 SW 1018,1 0 0,0
18.09.2018 20:00:00 24,0 19,3 23,0 25,2 10 5 19 11 SSW 1017,6 22 0,0
18.09.2018 19:00:00 25,8 19,0 25,8 25,1 11 6 23 13 SSW 1017,2 38 0,0
18.09.2018 18:00:00 27,4 18,4 29,2 24,9 12 6 26 14 S 1017,1 45 0,0
18.09.2018 17:00:00 27,9 17,4 31,2 24,7 13 7 24 13 S 1017,4 50 0,0
18.09.2018 16:00:00 27,6 17,7 30,7 24,5 12 7 23 13 SSW 1017,7 24 0,0
18.09.2018 15:00:00 29,0 17,5 32,3 24,2 10 5 23 12 S 1018,0 44 0,0
18.09.2018 14:00:00 28,5 17,4 33,4 24,0 6 3 22 12 SE 1018,4 48 0,0
18.09.2018 13:00:00 28,2 16,5 34,0 23,9 7 4 22 12 SSE 1018,6 60 0,0
18.09.2018 12:00:00 27,0 16,3 32,4 23,8 11 6 22 12 SE 1018,9 60 0,0
18.09.2018 11:00:00 26,7 17,5 29,9 23,8 9 5 16 9 ESE 1019,3 60 0,0
18.09.2018 10:00:00 25,2 17,9 22,2 23,9 7 4 12 7 E 1019,4 36 0,0
18.09.2018 09:00:00 20,9 17,7 17,5 23,9 6 4 13 7 ENE 1019,4 45 0,0
18.09.2018 08:00:00 18,7 17,7 15,9 24,1 3 2 8 4 N 1018,9 14 0,0
18.09.2018 07:00:00 18,2 16,7 17,6 24,2 3 2 10 5 ENE 1018,8 0 0,0
18.09.2018 06:00:00 18,9 17,7 16,9 24,2 4 2 10 6 NNW 1018,8 0 0,0
18.09.2018 05:00:00 19,1 17,2 18,0 24,3 8 4 11 6 N 1018,5 0 0,0
18.09.2018 04:00:00 19,4 17,2 17,9 24,5 5 3 11 6 NNW 1018,6 0 0,0
18.09.2018 03:00:00 18,6 16,9 16,7 24,6 6 3 9 5 NNW 1018,9 0 0,0
18.09.2018 02:00:00 18,5 16,3 17,3 24,7 4 2 8 5 NNW 1019,0 0 0,0
18.09.2018 01:00:00 18,7 15,9 17,4 24,8 4 2 7 4 NNW 1019,4 0 0,0
18.09.2018 00:00:00 19,2 15,9 16,5 25,0 3 2 8 5 N 1019,4 0 0,0
17.09.2018 23:00:00 18,9 15,6 16,1 25,0 4 2 5 3 NNW 1019,4 0 0,0
17.09.2018 22:00:00 20,7 15,9 17,7 25,1 2 1 11 6 SE 1019,2 0 0,0
17.09.2018 21:00:00 22,1 16,6 19,4 25,1 6 3 12 7 SSW 1018,5 0 0,0
17.09.2018 20:00:00 23,2 15,5 20,2 25,1 7 4 16 9 S 1017,8 28 0,0
17.09.2018 19:00:00 25,7 15,1 25,5 25,0 12 7 24 13 S 1017,9 60 0,0
17.09.2018 18:00:00 27,8 15,8 30,5 24,8 10 5 28 15 SW 1017,9 60 0,0
17.09.2018 17:00:00 28,5 15,8 31,6 24,6 12 6 26 14 SSW 1018,3 50 0,0
17.09.2018 16:00:00 28,8 16,7 31,1 24,3 12 7 29 16 S 1018,9 47 0,0
17.09.2018 15:00:00 27,7 16,9 31,7 24,1 13 7 37 20 S 1019,6 50 0,0
17.09.2018 14:00:00 28,2 17,4 30,4 24,0 8 4 16 9 S 1020,2 56 0,0
17.09.2018 13:00:00 26,0 18,4 28,6 23,8 5 3 13 7 E 1020,7 38 0,0
17.09.2018 12:00:00 25,4 18,8 25,8 23,8 0 0 8 5 N 1021,2 49 0,0
17.09.2018 11:00:00 22,1 19,1 21,9 23,8 2 1 9 5 NE 1021,4 0 0,0
17.09.2018 10:00:00 20,0 18,8 20,5 23,8 3 2 8 4 ENE 1021,5 0 0,0
17.09.2018 09:00:00 19,6 18,6 19,8 23,9 3 2 13 7 ENE 1021,5 11 0,0
17.09.2018 08:00:00 19,4 18,6 19,3 24,0 3 2 10 6 N 1021,2 16 0,0
17.09.2018 07:00:00 19,5 18,8 18,9 24,0 4 2 9 5 N 1020,7 0 0,0
17.09.2018 06:00:00 19,1 18,3 18,4 24,1 8 4 13 7 N 1020,7 0 0,0
17.09.2018 05:00:00 18,7 17,9 15,8 24,2 4 2 5 3 N 1020,6 0 0,0
17.09.2018 04:00:00 18,6 16,9 16,0 24,3 0 0 4 2 N 1020,8 0 0,0
17.09.2018 03:00:00 19,6 17,7 18,1 24,3 2 1 3 2 ESE 1021,3 0 0,0
17.09.2018 02:00:00 20,0 18,1 19,3 24,4 0 0 5 3 N 1021,5 0 0,0
17.09.2018 01:00:00 20,2 18,1 19,0 24,5 0 0 4 2 N 1021,4 0 0,0
17.09.2018 00:00:00 21,2 18,4 19,5 24,6 0 0 6 3 N 1021,6 0 0,0
16.09.2018 23:00:00 20,5 18,3 17,5 24,6 3 1 6 3 WNW 1022,1 0 0,0
16.09.2018 22:00:00 20,7 17,5 17,7 24,7 2 1 8 4 WSW 1021,9 0 0,0
16.09.2018 21:00:00 22,0 18,0 19,1 24,7 5 3 9 5 SSW 1021,3 0 0,0
16.09.2018 20:00:00 23,5 17,0 21,9 24,6 7 4 14 7 SSW 1020,8 29 0,0
16.09.2018 19:00:00 25,4 16,3 25,3 24,6 8 4 16 8 S 1020,6 18 0,0
16.09.2018 18:00:00 25,2 14,3 25,7 24,4 12 6 21 12 SSW 1020,4 0 0,0
16.09.2018 17:00:00 27,2 15,2 30,3 24,2 14 7 24 13 S 1020,0 43 0,0
16.09.2018 16:00:00 27,2 16,5 30,5 23,9 12 6 23 12 SSW 1020,1 31 0,0
16.09.2018 15:00:00 27,7 18,4 30,9 23,7 8 5 21 11 S 1020,5 27 0,0
16.09.2018 14:00:00 26,1 17,7 29,8 23,5 7 4 19 10 SSE 1020,9 9 0,0
16.09.2018 13:00:00 25,4 16,5 29,9 23,4 9 5 18 10 S 1021,4 23 0,0
16.09.2018 12:00:00 26,4 17,5 29,7 23,4 8 5 23 13 SE 1021,7 53 0,0
16.09.2018 11:00:00 24,7 15,1 23,4 23,4 9 5 14 7 E 1022,1 24 0,0
16.09.2018 10:00:00 21,1 12,5 20,4 23,4 0 0 10 6 N 1021,9 0 0,0
16.09.2018 09:00:00 19,6 10,0 17,4 23,5 6 4 11 6 NNW 1021,4 0 0,0
16.09.2018 08:00:00 18,3 8,3 15,1 23,7 0 0 16 9 N 1021,2 0 0,0
16.09.2018 07:00:00 17,3 7,6 14,1 23,8 0 0 6 4 N 1020,8 0 0,0
16.09.2018 06:00:00 16,2 7,4 13,0 24,0 3 2 16 9 ESE 1020,2 0 0,0
16.09.2018 05:00:00 15,6 7,1 11,0 24,1 5 3 11 6 NE 1020,0 0 0,0
16.09.2018 04:00:00 15,4 6,9 11,1 24,3 3 1 7 4 N 1020,3 0 0,0
16.09.2018 03:00:00 17,1 6,6 13,6 24,4 5 3 16 9 E 1020,9 0 0,0
16.09.2018 02:00:00 18,0 7,4 14,0 24,6 3 1 9 5 E 1021,4 0 0,0
16.09.2018 01:00:00 20,8 6,0 18,3 24,7 5 3 26 14 ENE 1020,9 0 0,0
16.09.2018 00:00:00 21,9 6,1 20,2 24,8 13 7 25 14 N 1020,5 0 0,0
15.09.2018 23:00:00 22,1 6,7 20,2 24,9 9 5 22 12 NNW 1020,4 0 0,0
15.09.2018 22:00:00 22,4 7,8 19,2 25,0 8 4 17 9 NNW 1020,4 0 0,0
15.09.2018 21:00:00 22,7 8,4 18,5 25,0 7 4 15 8 N 1020,2 0 0,0
15.09.2018 20:00:00 23,9 10,6 20,0 25,0 4 2 14 7 WNW 1019,8 0 0,0
15.09.2018 19:00:00 26,3 10,4 24,8 25,0 7 4 16 9 NNE 1019,3 12 0,0
15.09.2018 18:00:00 28,5 11,1 29,6 24,8 10 5 27 14 N 1019,0 44 0,0
15.09.2018 17:00:00 29,4 11,4 32,0 24,6 10 6 25 13 NNE 1018,7 54 0,0
15.09.2018 16:00:00 28,5 11,1 29,8 24,4 12 6 27 14 N 1019,0 38 0,0
15.09.2018 15:00:00 27,8 10,5 31,6 24,2 16 9 33 18 NNE 1019,4 53 0,0
15.09.2018 14:00:00 27,3 10,9 30,5 24,1 17 9 32 17 NNE 1019,6 45 0,0
15.09.2018 13:00:00 26,3 10,4 29,5 24,0 17 9 34 18 N 1019,9 52 0,0
15.09.2018 12:00:00 25,8 10,0 28,9 23,9 14 8 39 21 N 1020,6 60 0,0
15.09.2018 11:00:00 24,1 9,3 26,5 24,0 16 8 37 20 N 1021,0 60 0,0
15.09.2018 10:00:00 22,9 9,3 22,9 24,1 18 10 38 20 N 1020,8 60 0,0
15.09.2018 09:00:00 20,8 10,0 17,9 24,2 11 6 24 13 NNW 1020,3 60 0,0
15.09.2018 08:00:00 18,9 9,9 17,7 24,3 13 7 25 13 NNW 1020,1 18 0,0
15.09.2018 07:00:00 19,0 9,7 17,8 24,5 12 7 27 14 NNW 1019,9 0 0,0
15.09.2018 06:00:00 19,2 10,2 17,8 24,6 13 7 26 14 NNW 1019,4 0 0,0
15.09.2018 05:00:00 19,9 10,6 18,3 24,7 13 7 23 13 NNW 1019,2 0 0,0
15.09.2018 04:00:00 20,3 11,5 18,9 24,9 11 6 25 14 NNW 1019,0 0 0,0
15.09.2018 03:00:00 20,8 11,7 19,5 25,0 13 7 26 14 NNW 1019,3 0 0,0
15.09.2018 02:00:00 21,2 11,8 19,7 25,1 11 6 24 13 NNW 1019,2 0 0,0
15.09.2018 01:00:00 21,8 12,1 20,5 25,3 10 5 21 12 NNW 1019,1 0 0,0
15.09.2018 00:00:00 22,4 12,3 20,6 25,4 10 5 22 12 NNW 1018,8 0 0,0
14.09.2018 23:00:00 23,0 12,3 21,5 25,5 12 6 29 16 N 1018,6 0 0,0
14.09.2018 22:00:00 23,6 12,3 22,2 25,6 11 6 25 13 N 1018,3 0 0,0
14.09.2018 21:00:00 24,0 12,3 21,9 25,6 11 6 22 12 N 1017,8 0 0,0
14.09.2018 20:00:00 24,9 12,5 23,0 25,6 9 5 24 13 NNE 1017,2 10 0,0
14.09.2018 19:00:00 27,0 13,4 26,5 25,5 12 7 32 17 NE 1016,7 39 0,0
14.09.2018 18:00:00 29,0 14,8 31,1 25,4 16 9 33 18 NE 1016,1 60 0,0
14.09.2018 17:00:00 29,6 14,6 29,8 25,1 18 10 32 17 NE 1015,9 37 0,0
14.09.2018 16:00:00 29,6 14,6 31,5 24,9 8 4 26 14 N 1016,0 34 0,0
14.09.2018 15:00:00 29,7 12,2 33,2 24,6 15 8 32 18 NNW 1016,3 54 0,0
14.09.2018 14:00:00 29,5 14,1 34,2 24,4 12 7 29 15 N 1016,7 60 0,0
14.09.2018 13:00:00 28,2 14,1 33,0 24,3 10 6 30 16 NNW 1017,1 60 0,0
14.09.2018 12:00:00 27,0 15,1 28,1 24,3 10 5 30 16 NNW 1017,4 45 0,0
14.09.2018 11:00:00 24,8 14,0 25,0 24,3 13 7 39 21 NNW 1017,7 18 0,0
14.09.2018 10:00:00 24,0 14,4 23,3 24,3 13 7 26 14 N 1017,3 43 0,0
14.09.2018 09:00:00 22,1 14,5 18,3 24,5 11 6 23 12 NNW 1017,0 60 0,0
14.09.2018 08:00:00 20,0 14,4 16,5 24,6 2 1 9 5 W 1016,9 19 0,0
14.09.2018 07:00:00 19,3 14,1 16,0 24,7 0 0 7 4 N 1016,6 0 0,0

tt = Température de l'air
td = dewpoint
tt 5cm = Température de l'air 5cm
tt -20cm = Température de l'air -20cm
ff = Vitesse du vent
fx = gusts
dd = Direction du vent
ppp = reduced air pressure
sd = Ensoleillement
rr = Quantités de précipitations

stations d'obs. à proximité